sensor_id;sensor_type;location;lat;lon;timestamp;temperature;humidity
13436;DHT22;6790;49.520;8.504;2023-05-27T00:01:02;13.30;99.90
13436;DHT22;6790;49.520;8.504;2023-05-27T00:03:28;13.30;99.90
13436;DHT22;6790;49.520;8.504;2023-05-27T00:05:53;13.30;99.90
13436;DHT22;6790;49.520;8.504;2023-05-27T00:08:19;13.30;99.90
13436;DHT22;6790;49.520;8.504;2023-05-27T00:10:45;13.20;99.90
13436;DHT22;6790;49.520;8.504;2023-05-27T00:13:11;13.10;99.90
13436;DHT22;6790;49.520;8.504;2023-05-27T00:15:39;13.10;99.90
13436;DHT22;6790;49.520;8.504;2023-05-27T00:18:06;13.10;99.90
13436;DHT22;6790;49.520;8.504;2023-05-27T00:20:32;13.10;99.90
13436;DHT22;6790;49.520;8.504;2023-05-27T00:22:58;13.00;99.90
13436;DHT22;6790;49.520;8.504;2023-05-27T00:25:25;13.00;99.90
13436;DHT22;6790;49.520;8.504;2023-05-27T00:27:51;13.00;99.90
13436;DHT22;6790;49.520;8.504;2023-05-27T00:30:17;12.90;99.90
13436;DHT22;6790;49.520;8.504;2023-05-27T00:32:43;12.90;99.90
13436;DHT22;6790;49.520;8.504;2023-05-27T00:35:09;12.90;99.90
13436;DHT22;6790;49.520;8.504;2023-05-27T00:37:35;12.80;99.90
13436;DHT22;6790;49.520;8.504;2023-05-27T00:40:01;12.70;99.90
13436;DHT22;6790;49.520;8.504;2023-05-27T00:42:27;12.70;99.90
13436;DHT22;6790;49.520;8.504;2023-05-27T00:44:52;12.70;99.90
13436;DHT22;6790;49.520;8.504;2023-05-27T00:47:19;12.60;99.90
13436;DHT22;6790;49.520;8.504;2023-05-27T00:49:45;12.60;99.90
13436;DHT22;6790;49.520;8.504;2023-05-27T00:52:11;12.50;99.90
13436;DHT22;6790;49.520;8.504;2023-05-27T00:54:40;12.50;99.90
13436;DHT22;6790;49.520;8.504;2023-05-27T00:57:06;12.50;99.90
13436;DHT22;6790;49.520;8.504;2023-05-27T00:59:32;12.50;99.90
13436;DHT22;6790;49.520;8.504;2023-05-27T01:01:57;12.40;99.90
13436;DHT22;6790;49.520;8.504;2023-05-27T01:04:25;12.40;99.90
13436;DHT22;6790;49.520;8.504;2023-05-27T01:07:08;12.40;99.90
13436;DHT22;6790;49.520;8.504;2023-05-27T01:09:52;12.30;99.90
13436;DHT22;6790;49.520;8.504;2023-05-27T01:12:43;12.20;99.90
13436;DHT22;6790;49.520;8.504;2023-05-27T01:15:19;12.20;99.90
13436;DHT22;6790;49.520;8.504;2023-05-27T01:17:47;12.20;99.90
13436;DHT22;6790;49.520;8.504;2023-05-27T01:20:14;12.10;99.90
13436;DHT22;6790;49.520;8.504;2023-05-27T01:22:41;12.00;99.90
13436;DHT22;6790;49.520;8.504;2023-05-27T01:25:11;12.00;99.90
13436;DHT22;6790;49.520;8.504;2023-05-27T01:27:36;12.00;99.90
13436;DHT22;6790;49.520;8.504;2023-05-27T01:30:06;12.00;99.90
13436;DHT22;6790;49.520;8.504;2023-05-27T01:33:13;12.00;99.90
13436;DHT22;6790;49.520;8.504;2023-05-27T01:35:46;11.90;99.90
13436;DHT22;6790;49.520;8.504;2023-05-27T01:38:18;11.90;99.90
13436;DHT22;6790;49.520;8.504;2023-05-27T01:40:46;11.90;99.90
13436;DHT22;6790;49.520;8.504;2023-05-27T01:43:13;11.90;99.90
13436;DHT22;6790;49.520;8.504;2023-05-27T01:45:41;11.80;99.90
13436;DHT22;6790;49.520;8.504;2023-05-27T01:48:07;11.70;99.90
13436;DHT22;6790;49.520;8.504;2023-05-27T01:50:38;11.60;99.90
13436;DHT22;6790;49.520;8.504;2023-05-27T01:53:05;11.60;99.90
13436;DHT22;6790;49.520;8.504;2023-05-27T01:55:31;11.60;99.90
13436;DHT22;6790;49.520;8.504;2023-05-27T01:57:57;11.60;99.90
13436;DHT22;6790;49.520;8.504;2023-05-27T02:00:23;11.50;99.90
13436;DHT22;6790;49.520;8.504;2023-05-27T02:02:49;11.60;99.90
13436;DHT22;6790;49.520;8.504;2023-05-27T02:05:15;11.60;99.90
13436;DHT22;6790;49.520;8.504;2023-05-27T02:07:41;11.60;99.90
13436;DHT22;6790;49.520;8.504;2023-05-27T02:10:07;11.60;99.90
13436;DHT22;6790;49.520;8.504;2023-05-27T02:12:33;11.60;99.90
13436;DHT22;6790;49.520;8.504;2023-05-27T02:14:59;11.50;99.90
13436;DHT22;6790;49.520;8.504;2023-05-27T02:17:25;11.50;99.90
13436;DHT22;6790;49.520;8.504;2023-05-27T02:19:52;11.50;99.90
13436;DHT22;6790;49.520;8.504;2023-05-27T02:22:18;11.40;99.90
13436;DHT22;6790;49.520;8.504;2023-05-27T02:24:44;11.30;99.90
13436;DHT22;6790;49.520;8.504;2023-05-27T02:27:10;11.30;99.90
13436;DHT22;6790;49.520;8.504;2023-05-27T02:29:36;11.20;99.90
13436;DHT22;6790;49.520;8.504;2023-05-27T02:32:02;11.20;99.90
13436;DHT22;6790;49.520;8.504;2023-05-27T02:34:27;11.30;99.90
13436;DHT22;6790;49.520;8.504;2023-05-27T02:36:53;11.30;99.90
13436;DHT22;6790;49.520;8.504;2023-05-27T02:39:19;11.20;99.90
13436;DHT22;6790;49.520;8.504;2023-05-27T02:41:44;11.30;99.90
13436;DHT22;6790;49.520;8.504;2023-05-27T02:44:11;11.20;99.90
13436;DHT22;6790;49.520;8.504;2023-05-27T02:46:36;11.10;99.90
13436;DHT22;6790;49.520;8.504;2023-05-27T02:49:02;11.10;99.90
13436;DHT22;6790;49.520;8.504;2023-05-27T02:51:29;11.10;99.90
13436;DHT22;6790;49.520;8.504;2023-05-27T02:53:54;11.10;99.90
13436;DHT22;6790;49.520;8.504;2023-05-27T02:56:20;11.10;99.90
13436;DHT22;6790;49.520;8.504;2023-05-27T02:58:46;11.10;99.90
13436;DHT22;6790;49.520;8.504;2023-05-27T03:01:12;11.00;99.90
13436;DHT22;6790;49.520;8.504;2023-05-27T03:03:38;11.10;99.90
13436;DHT22;6790;49.520;8.504;2023-05-27T03:06:03;11.00;99.90
13436;DHT22;6790;49.520;8.504;2023-05-27T03:08:29;11.00;99.90
13436;DHT22;6790;49.520;8.504;2023-05-27T03:10:55;10.90;99.90
13436;DHT22;6790;49.520;8.504;2023-05-27T03:13:21;10.80;99.90
13436;DHT22;6790;49.520;8.504;2023-05-27T03:15:46;10.80;99.90
13436;DHT22;6790;49.520;8.504;2023-05-27T03:18:12;10.80;99.90
13436;DHT22;6790;49.520;8.504;2023-05-27T03:20:38;10.80;99.90
13436;DHT22;6790;49.520;8.504;2023-05-27T03:23:03;10.80;99.90
13436;DHT22;6790;49.520;8.504;2023-05-27T03:25:29;10.70;99.90
13436;DHT22;6790;49.520;8.504;2023-05-27T03:27:55;10.70;99.90
13436;DHT22;6790;49.520;8.504;2023-05-27T03:30:20;10.70;99.90
13436;DHT22;6790;49.520;8.504;2023-05-27T03:32:46;10.70;99.90
13436;DHT22;6790;49.520;8.504;2023-05-27T03:35:12;10.70;99.90
13436;DHT22;6790;49.520;8.504;2023-05-27T03:37:38;10.60;99.90
13436;DHT22;6790;49.520;8.504;2023-05-27T03:40:04;10.70;99.90
13436;DHT22;6790;49.520;8.504;2023-05-27T03:42:31;10.70;99.90
13436;DHT22;6790;49.520;8.504;2023-05-27T03:44:57;10.70;99.90
13436;DHT22;6790;49.520;8.504;2023-05-27T03:47:22;10.60;99.90
13436;DHT22;6790;49.520;8.504;2023-05-27T03:49:48;10.60;99.90
13436;DHT22;6790;49.520;8.504;2023-05-27T03:52:14;10.60;99.90
13436;DHT22;6790;49.520;8.504;2023-05-27T03:54:40;10.70;99.90
13436;DHT22;6790;49.520;8.504;2023-05-27T03:57:07;10.70;99.90
13436;DHT22;6790;49.520;8.504;2023-05-27T03:59:33;10.70;99.90
13436;DHT22;6790;49.520;8.504;2023-05-27T04:02:00;10.80;99.90
13436;DHT22;6790;49.520;8.504;2023-05-27T04:04:25;10.70;99.90
13436;DHT22;6790;49.520;8.504;2023-05-27T04:06:51;10.80;99.90
13436;DHT22;6790;49.520;8.504;2023-05-27T04:09:18;10.80;99.90
13436;DHT22;6790;49.520;8.504;2023-05-27T04:11:44;10.80;99.90
13436;DHT22;6790;49.520;8.504;2023-05-27T04:14:10;10.80;99.90
13436;DHT22;6790;49.520;8.504;2023-05-27T04:16:35;10.80;99.90
13436;DHT22;6790;49.520;8.504;2023-05-27T04:19:01;10.90;99.90
13436;DHT22;6790;49.520;8.504;2023-05-27T04:21:27;10.80;99.90
13436;DHT22;6790;49.520;8.504;2023-05-27T04:23:53;10.90;99.90
13436;DHT22;6790;49.520;8.504;2023-05-27T04:26:19;10.90;99.90
13436;DHT22;6790;49.520;8.504;2023-05-27T04:28:45;11.00;99.90
13436;DHT22;6790;49.520;8.504;2023-05-27T04:31:12;11.00;99.90
13436;DHT22;6790;49.520;8.504;2023-05-27T04:33:39;11.00;99.90
13436;DHT22;6790;49.520;8.504;2023-05-27T04:36:06;11.10;99.90
13436;DHT22;6790;49.520;8.504;2023-05-27T04:38:32;11.10;99.90
13436;DHT22;6790;49.520;8.504;2023-05-27T04:40:58;11.20;99.90
13436;DHT22;6790;49.520;8.504;2023-05-27T04:43:24;11.20;99.90
13436;DHT22;6790;49.520;8.504;2023-05-27T04:45:52;11.30;99.90
13436;DHT22;6790;49.520;8.504;2023-05-27T04:48:19;11.40;99.90
13436;DHT22;6790;49.520;8.504;2023-05-27T04:50:48;11.40;99.90
13436;DHT22;6790;49.520;8.504;2023-05-27T04:53:14;11.50;99.90
13436;DHT22;6790;49.520;8.504;2023-05-27T04:55:41;11.50;99.90
13436;DHT22;6790;49.520;8.504;2023-05-27T04:58:07;11.60;99.90
13436;DHT22;6790;49.520;8.504;2023-05-27T05:00:32;11.60;99.90
13436;DHT22;6790;49.520;8.504;2023-05-27T05:03:06;11.70;99.90
13436;DHT22;6790;49.520;8.504;2023-05-27T05:05:32;11.70;99.90
13436;DHT22;6790;49.520;8.504;2023-05-27T05:07:58;11.80;99.90
13436;DHT22;6790;49.520;8.504;2023-05-27T05:10:24;11.90;99.90
13436;DHT22;6790;49.520;8.504;2023-05-27T05:12:50;11.90;99.90
13436;DHT22;6790;49.520;8.504;2023-05-27T05:15:16;12.00;99.90
13436;DHT22;6790;49.520;8.504;2023-05-27T05:17:42;12.00;99.90
13436;DHT22;6790;49.520;8.504;2023-05-27T05:20:08;12.10;99.90
13436;DHT22;6790;49.520;8.504;2023-05-27T05:22:35;12.10;99.90
13436;DHT22;6790;49.520;8.504;2023-05-27T05:25:01;12.20;99.90
13436;DHT22;6790;49.520;8.504;2023-05-27T05:27:27;12.30;99.90
13436;DHT22;6790;49.520;8.504;2023-05-27T05:29:53;12.30;99.90
13436;DHT22;6790;49.520;8.504;2023-05-27T05:32:19;12.40;99.90
13436;DHT22;6790;49.520;8.504;2023-05-27T05:34:45;12.50;99.90
13436;DHT22;6790;49.520;8.504;2023-05-27T05:37:11;12.50;99.90
13436;DHT22;6790;49.520;8.504;2023-05-27T05:39:36;12.50;99.90
13436;DHT22;6790;49.520;8.504;2023-05-27T05:42:02;12.70;99.90
13436;DHT22;6790;49.520;8.504;2023-05-27T05:44:28;12.80;99.90
13436;DHT22;6790;49.520;8.504;2023-05-27T05:46:54;12.90;99.90
13436;DHT22;6790;49.520;8.504;2023-05-27T05:49:20;13.00;99.90
13436;DHT22;6790;49.520;8.504;2023-05-27T05:51:46;13.00;99.90
13436;DHT22;6790;49.520;8.504;2023-05-27T05:54:12;13.10;99.90
13436;DHT22;6790;49.520;8.504;2023-05-27T05:56:37;13.20;99.90
13436;DHT22;6790;49.520;8.504;2023-05-27T05:59:03;13.30;99.90
13436;DHT22;6790;49.520;8.504;2023-05-27T06:01:30;13.50;99.90
13436;DHT22;6790;49.520;8.504;2023-05-27T06:03:56;13.50;99.90
13436;DHT22;6790;49.520;8.504;2023-05-27T06:06:23;13.60;99.90
13436;DHT22;6790;49.520;8.504;2023-05-27T06:08:49;13.70;99.90
13436;DHT22;6790;49.520;8.504;2023-05-27T06:11:14;13.80;99.90
13436;DHT22;6790;49.520;8.504;2023-05-27T06:13:40;13.90;99.90
13436;DHT22;6790;49.520;8.504;2023-05-27T06:16:06;14.00;99.90
13436;DHT22;6790;49.520;8.504;2023-05-27T06:18:32;14.10;99.90
13436;DHT22;6790;49.520;8.504;2023-05-27T06:20:57;14.20;99.90
13436;DHT22;6790;49.520;8.504;2023-05-27T06:23:23;14.40;99.90
13436;DHT22;6790;49.520;8.504;2023-05-27T06:25:49;14.40;99.90
13436;DHT22;6790;49.520;8.504;2023-05-27T06:28:15;14.50;99.50
13436;DHT22;6790;49.520;8.504;2023-05-27T06:30:41;14.60;98.40
13436;DHT22;6790;49.520;8.504;2023-05-27T06:33:08;14.80;98.50
13436;DHT22;6790;49.520;8.504;2023-05-27T06:35:34;14.90;96.90
13436;DHT22;6790;49.520;8.504;2023-05-27T06:38:00;15.00;97.80
13436;DHT22;6790;49.520;8.504;2023-05-27T06:40:26;15.10;97.70
13436;DHT22;6790;49.520;8.504;2023-05-27T06:42:52;15.40;97.90
13436;DHT22;6790;49.520;8.504;2023-05-27T06:45:19;15.50;96.70
13436;DHT22;6790;49.520;8.504;2023-05-27T06:47:45;15.70;95.30
13436;DHT22;6790;49.520;8.504;2023-05-27T06:50:10;15.80;96.00
13436;DHT22;6790;49.520;8.504;2023-05-27T06:52:36;15.70;94.30
13436;DHT22;6790;49.520;8.504;2023-05-27T06:55:02;16.00;93.60
13436;DHT22;6790;49.520;8.504;2023-05-27T06:57:28;16.10;91.20
13436;DHT22;6790;49.520;8.504;2023-05-27T06:59:54;16.30;93.30
13436;DHT22;6790;49.520;8.504;2023-05-27T07:02:20;16.40;92.20
13436;DHT22;6790;49.520;8.504;2023-05-27T07:04:46;16.60;93.00
13436;DHT22;6790;49.520;8.504;2023-05-27T07:07:12;16.70;91.00
13436;DHT22;6790;49.520;8.504;2023-05-27T07:09:37;16.80;91.20
13436;DHT22;6790;49.520;8.504;2023-05-27T07:12:03;16.80;90.80
13436;DHT22;6790;49.520;8.504;2023-05-27T07:14:29;17.00;91.00
13436;DHT22;6790;49.520;8.504;2023-05-27T07:16:55;17.20;90.20
13436;DHT22;6790;49.520;8.504;2023-05-27T07:19:21;17.30;89.20
13436;DHT22;6790;49.520;8.504;2023-05-27T07:21:47;17.60;88.90
13436;DHT22;6790;49.520;8.504;2023-05-27T07:24:13;17.80;89.70
13436;DHT22;6790;49.520;8.504;2023-05-27T07:26:39;17.90;85.10
13436;DHT22;6790;49.520;8.504;2023-05-27T07:29:05;18.00;78.20
13436;DHT22;6790;49.520;8.504;2023-05-27T07:31:31;18.00;74.10
13436;DHT22;6790;49.520;8.504;2023-05-27T07:33:57;18.10;74.10
13436;DHT22;6790;49.520;8.504;2023-05-27T07:36:23;18.20;73.60
13436;DHT22;6790;49.520;8.504;2023-05-27T07:38:49;18.20;73.30
13436;DHT22;6790;49.520;8.504;2023-05-27T07:41:14;18.50;75.30
13436;DHT22;6790;49.520;8.504;2023-05-27T07:43:40;18.50;70.30
13436;DHT22;6790;49.520;8.504;2023-05-27T07:46:06;18.50;69.40
13436;DHT22;6790;49.520;8.504;2023-05-27T07:48:32;18.70;66.80
13436;DHT22;6790;49.520;8.504;2023-05-27T07:50:57;18.80;69.60
13436;DHT22;6790;49.520;8.504;2023-05-27T07:53:23;19.10;70.00
13436;DHT22;6790;49.520;8.504;2023-05-27T07:55:49;19.40;68.20
13436;DHT22;6790;49.520;8.504;2023-05-27T07:58:15;19.50;68.70
13436;DHT22;6790;49.520;8.504;2023-05-27T08:00:40;19.40;67.90
13436;DHT22;6790;49.520;8.504;2023-05-27T08:03:06;19.60;67.20
13436;DHT22;6790;49.520;8.504;2023-05-27T08:05:32;19.70;63.40
13436;DHT22;6790;49.520;8.504;2023-05-27T08:07:58;19.70;62.80
13436;DHT22;6790;49.520;8.504;2023-05-27T08:10:25;19.80;67.50
13436;DHT22;6790;49.520;8.504;2023-05-27T08:12:51;19.70;62.40
13436;DHT22;6790;49.520;8.504;2023-05-27T08:15:17;19.80;63.40
13436;DHT22;6790;49.520;8.504;2023-05-27T08:17:43;19.90;62.80
13436;DHT22;6790;49.520;8.504;2023-05-27T08:20:10;20.00;59.50
13436;DHT22;6790;49.520;8.504;2023-05-27T08:22:36;19.80;57.90
13436;DHT22;6790;49.520;8.504;2023-05-27T08:25:02;19.80;58.40
13436;DHT22;6790;49.520;8.504;2023-05-27T08:27:52;19.90;59.70
13436;DHT22;6790;49.520;8.504;2023-05-27T08:30:19;20.40;68.00
13436;DHT22;6790;49.520;8.504;2023-05-27T08:32:47;20.60;61.20
13436;DHT22;6790;49.520;8.504;2023-05-27T08:35:17;20.60;59.30
13436;DHT22;6790;49.520;8.504;2023-05-27T08:37:55;20.80;56.90
13436;DHT22;6790;49.520;8.504;2023-05-27T08:40:24;20.60;58.20
13436;DHT22;6790;49.520;8.504;2023-05-27T08:42:50;20.60;56.20
13436;DHT22;6790;49.520;8.504;2023-05-27T08:45:16;20.70;57.30
13436;DHT22;6790;49.520;8.504;2023-05-27T08:47:56;20.30;53.40
13436;DHT22;6790;49.520;8.504;2023-05-27T08:50:25;20.30;56.00
13436;DHT22;6790;49.520;8.504;2023-05-27T08:53:01;20.30;55.40
13436;DHT22;6790;49.520;8.504;2023-05-27T08:55:29;20.60;63.50
13436;DHT22;6790;49.520;8.504;2023-05-27T08:57:57;20.70;55.30
13436;DHT22;6790;49.520;8.504;2023-05-27T09:00:25;21.10;58.90
13436;DHT22;6790;49.520;8.504;2023-05-27T09:02:51;21.20;53.80
13436;DHT22;6790;49.520;8.504;2023-05-27T09:05:19;21.40;54.80
13436;DHT22;6790;49.520;8.504;2023-05-27T09:07:46;21.30;52.50
13436;DHT22;6790;49.520;8.504;2023-05-27T09:10:11;21.10;55.10
13436;DHT22;6790;49.520;8.504;2023-05-27T09:12:37;21.60;56.60
13436;DHT22;6790;49.520;8.504;2023-05-27T09:15:04;21.20;54.10
13436;DHT22;6790;49.520;8.504;2023-05-27T09:17:30;21.30;55.70
13436;DHT22;6790;49.520;8.504;2023-05-27T09:19:56;21.70;56.60
13436;DHT22;6790;49.520;8.504;2023-05-27T09:22:23;21.90;55.10
13436;DHT22;6790;49.520;8.504;2023-05-27T09:24:54;21.90;51.90
13436;DHT22;6790;49.520;8.504;2023-05-27T09:27:28;21.60;51.80
13436;DHT22;6790;49.520;8.504;2023-05-27T09:29:55;21.80;53.80
13436;DHT22;6790;49.520;8.504;2023-05-27T09:32:31;22.10;50.00
13436;DHT22;6790;49.520;8.504;2023-05-27T09:34:58;22.10;48.90
13436;DHT22;6790;49.520;8.504;2023-05-27T09:37:27;22.10;56.00
13436;DHT22;6790;49.520;8.504;2023-05-27T09:40:15;21.70;51.90
13436;DHT22;6790;49.520;8.504;2023-05-27T09:42:48;22.00;51.10
13436;DHT22;6790;49.520;8.504;2023-05-27T09:45:20;22.00;49.90
13436;DHT22;6790;49.520;8.504;2023-05-27T09:47:53;22.20;52.10
13436;DHT22;6790;49.520;8.504;2023-05-27T09:50:20;22.20;49.90
13436;DHT22;6790;49.520;8.504;2023-05-27T09:52:48;22.10;48.10
13436;DHT22;6790;49.520;8.504;2023-05-27T09:55:15;22.20;50.00
13436;DHT22;6790;49.520;8.504;2023-05-27T09:57:44;22.60;49.50
13436;DHT22;6790;49.520;8.504;2023-05-27T10:00:11;22.70;51.50
13436;DHT22;6790;49.520;8.504;2023-05-27T10:02:50;23.00;50.90
13436;DHT22;6790;49.520;8.504;2023-05-27T10:05:17;23.20;52.60
13436;DHT22;6790;49.520;8.504;2023-05-27T10:07:46;23.10;48.90
13436;DHT22;6790;49.520;8.504;2023-05-27T10:10:16;22.90;48.70
13436;DHT22;6790;49.520;8.504;2023-05-27T10:12:43;22.70;48.90
13436;DHT22;6790;49.520;8.504;2023-05-27T10:15:22;22.60;47.80
13436;DHT22;6790;49.520;8.504;2023-05-27T10:17:54;23.00;53.20
13436;DHT22;6790;49.520;8.504;2023-05-27T10:20:30;23.20;49.20
13436;DHT22;6790;49.520;8.504;2023-05-27T10:25:39;23.50;46.70
13436;DHT22;6790;49.520;8.504;2023-05-27T10:31:50;23.40;46.40
13436;DHT22;6790;49.520;8.504;2023-05-27T10:38:36;23.40;55.00
13436;DHT22;6790;49.520;8.504;2023-05-27T10:42:06;22.70;45.70
13436;DHT22;6790;49.520;8.504;2023-05-27T10:45:19;23.50;50.10
13436;DHT22;6790;49.520;8.504;2023-05-27T10:48:32;23.80;47.60
13436;DHT22;6790;49.520;8.504;2023-05-27T10:51:33;24.10;46.90
13436;DHT22;6790;49.520;8.504;2023-05-27T10:54:14;24.20;44.60
13436;DHT22;6790;49.520;8.504;2023-05-27T10:56:52;23.70;47.10
13436;DHT22;6790;49.520;8.504;2023-05-27T10:59:22;23.70;44.10
13436;DHT22;6790;49.520;8.504;2023-05-27T11:01:52;23.60;42.70
13436;DHT22;6790;49.520;8.504;2023-05-27T11:04:21;23.90;45.10
13436;DHT22;6790;49.520;8.504;2023-05-27T11:06:58;23.60;45.40
13436;DHT22;6790;49.520;8.504;2023-05-27T11:09:25;23.80;47.70
13436;DHT22;6790;49.520;8.504;2023-05-27T11:11:51;24.10;42.60
13436;DHT22;6790;49.520;8.504;2023-05-27T11:14:16;24.30;42.70
13436;DHT22;6790;49.520;8.504;2023-05-27T11:16:48;24.50;42.60
13436;DHT22;6790;49.520;8.504;2023-05-27T11:19:26;24.60;41.30
13436;DHT22;6790;49.520;8.504;2023-05-27T11:21:51;24.10;41.00
13436;DHT22;6790;49.520;8.504;2023-05-27T11:24:20;23.90;42.00
13436;DHT22;6790;49.520;8.504;2023-05-27T11:26:47;24.20;42.80
13436;DHT22;6790;49.520;8.504;2023-05-27T11:29:14;24.50;41.10
13436;DHT22;6790;49.520;8.504;2023-05-27T11:31:40;24.60;39.40
13436;DHT22;6790;49.520;8.504;2023-05-27T11:34:16;24.60;41.90
13436;DHT22;6790;49.520;8.504;2023-05-27T11:36:44;24.40;40.20
13436;DHT22;6790;49.520;8.504;2023-05-27T11:39:13;24.70;42.50
13436;DHT22;6790;49.520;8.504;2023-05-27T11:41:54;24.70;38.60
13436;DHT22;6790;49.520;8.504;2023-05-27T11:44:21;24.70;42.00
13436;DHT22;6790;49.520;8.504;2023-05-27T11:46:49;25.10;36.20
13436;DHT22;6790;49.520;8.504;2023-05-27T11:49:19;25.20;35.40
13436;DHT22;6790;49.520;8.504;2023-05-27T11:51:47;25.10;36.50
13436;DHT22;6790;49.520;8.504;2023-05-27T11:54:30;25.20;37.00
13436;DHT22;6790;49.520;8.504;2023-05-27T11:56:58;25.00;36.10
13436;DHT22;6790;49.520;8.504;2023-05-27T11:59:25;24.70;35.90
13436;DHT22;6790;49.520;8.504;2023-05-27T12:01:57;24.90;39.40
13436;DHT22;6790;49.520;8.504;2023-05-27T12:04:22;25.20;35.40
13436;DHT22;6790;49.520;8.504;2023-05-27T12:06:48;24.70;35.00
13436;DHT22;6790;49.520;8.504;2023-05-27T12:09:14;24.60;36.10
13436;DHT22;6790;49.520;8.504;2023-05-27T12:11:40;24.90;36.20
13436;DHT22;6790;49.520;8.504;2023-05-27T12:14:06;25.30;36.20
13436;DHT22;6790;49.520;8.504;2023-05-27T12:16:32;25.60;32.90
13436;DHT22;6790;49.520;8.504;2023-05-27T12:18:58;26.00;37.30
13436;DHT22;6790;49.520;8.504;2023-05-27T12:21:24;25.60;32.80
13436;DHT22;6790;49.520;8.504;2023-05-27T12:23:50;25.30;35.40
13436;DHT22;6790;49.520;8.504;2023-05-27T12:26:16;25.20;33.20
13436;DHT22;6790;49.520;8.504;2023-05-27T12:28:42;25.20;35.60
13436;DHT22;6790;49.520;8.504;2023-05-27T12:31:08;25.30;36.90
13436;DHT22;6790;49.520;8.504;2023-05-27T12:33:34;25.60;31.90
13436;DHT22;6790;49.520;8.504;2023-05-27T12:36:02;25.40;33.40
13436;DHT22;6790;49.520;8.504;2023-05-27T12:38:31;25.50;32.80
13436;DHT22;6790;49.520;8.504;2023-05-27T12:40:56;25.60;32.40
13436;DHT22;6790;49.520;8.504;2023-05-27T12:43:23;25.60;33.60
13436;DHT22;6790;49.520;8.504;2023-05-27T12:45:49;25.30;33.80
13436;DHT22;6790;49.520;8.504;2023-05-27T12:48:16;25.60;33.40
13436;DHT22;6790;49.520;8.504;2023-05-27T12:50:45;25.80;31.80
13436;DHT22;6790;49.520;8.504;2023-05-27T12:53:11;26.00;35.10
13436;DHT22;6790;49.520;8.504;2023-05-27T12:55:37;26.00;31.60
13436;DHT22;6790;49.520;8.504;2023-05-27T12:58:04;26.10;32.50
13436;DHT22;6790;49.520;8.504;2023-05-27T13:00:30;26.00;30.00
13436;DHT22;6790;49.520;8.504;2023-05-27T13:02:56;25.70;30.50
13436;DHT22;6790;49.520;8.504;2023-05-27T13:05:22;26.30;36.60
13436;DHT22;6790;49.520;8.504;2023-05-27T13:07:58;26.90;35.80
13436;DHT22;6790;49.520;8.504;2023-05-27T13:10:28;26.30;30.00
13436;DHT22;6790;49.520;8.504;2023-05-27T13:12:55;26.10;32.40
13436;DHT22;6790;49.520;8.504;2023-05-27T13:15:21;25.70;34.10
13436;DHT22;6790;49.520;8.504;2023-05-27T13:17:52;25.90;33.50
13436;DHT22;6790;49.520;8.504;2023-05-27T13:20:19;26.40;33.30
13436;DHT22;6790;49.520;8.504;2023-05-27T13:22:47;27.00;33.90
13436;DHT22;6790;49.520;8.504;2023-05-27T13:25:13;27.30;29.40
13436;DHT22;6790;49.520;8.504;2023-05-27T13:27:40;27.20;28.60
13436;DHT22;6790;49.520;8.504;2023-05-27T13:30:14;27.10;31.30
13436;DHT22;6790;49.520;8.504;2023-05-27T13:32:41;26.90;33.70
13436;DHT22;6790;49.520;8.504;2023-05-27T13:35:08;26.90;29.70
13436;DHT22;6790;49.520;8.504;2023-05-27T13:37:34;26.70;29.80
13436;DHT22;6790;49.520;8.504;2023-05-27T13:40:00;26.80;29.00
13436;DHT22;6790;49.520;8.504;2023-05-27T13:42:26;26.60;27.90
13436;DHT22;6790;49.520;8.504;2023-05-27T13:44:52;26.30;27.20
13436;DHT22;6790;49.520;8.504;2023-05-27T13:47:18;26.60;28.90
13436;DHT22;6790;49.520;8.504;2023-05-27T13:49:43;26.80;26.50
13436;DHT22;6790;49.520;8.504;2023-05-27T13:52:09;26.80;25.40
13436;DHT22;6790;49.520;8.504;2023-05-27T13:54:34;26.60;25.40
13436;DHT22;6790;49.520;8.504;2023-05-27T13:57:00;27.00;27.60
13436;DHT22;6790;49.520;8.504;2023-05-27T13:59:26;26.90;25.00
13436;DHT22;6790;49.520;8.504;2023-05-27T14:01:51;27.00;28.40
13436;DHT22;6790;49.520;8.504;2023-05-27T14:04:19;26.90;27.00
13436;DHT22;6790;49.520;8.504;2023-05-27T14:06:46;26.60;23.40
13436;DHT22;6790;49.520;8.504;2023-05-27T14:09:55;26.50;23.60
13436;DHT22;6790;49.520;8.504;2023-05-27T14:12:24;26.70;26.50
13436;DHT22;6790;49.520;8.504;2023-05-27T14:14:51;26.40;23.20
13436;DHT22;6790;49.520;8.504;2023-05-27T14:17:16;25.80;23.70
13436;DHT22;6790;49.520;8.504;2023-05-27T14:19:42;25.40;25.30
13436;DHT22;6790;49.520;8.504;2023-05-27T14:22:08;25.40;24.90
13436;DHT22;6790;49.520;8.504;2023-05-27T14:24:33;25.40;28.00
13436;DHT22;6790;49.520;8.504;2023-05-27T14:26:59;25.40;25.10
13436;DHT22;6790;49.520;8.504;2023-05-27T14:29:26;25.40;27.30
13436;DHT22;6790;49.520;8.504;2023-05-27T14:31:52;25.20;24.50
13436;DHT22;6790;49.520;8.504;2023-05-27T14:34:18;24.90;24.60
13436;DHT22;6790;49.520;8.504;2023-05-27T14:36:44;25.20;26.30
13436;DHT22;6790;49.520;8.504;2023-05-27T14:39:09;25.40;25.80
13436;DHT22;6790;49.520;8.504;2023-05-27T14:41:35;25.30;24.20
13436;DHT22;6790;49.520;8.504;2023-05-27T14:44:01;25.20;25.00
13436;DHT22;6790;49.520;8.504;2023-05-27T14:46:28;25.40;24.90
13436;DHT22;6790;49.520;8.504;2023-05-27T14:48:54;25.50;26.90
13436;DHT22;6790;49.520;8.504;2023-05-27T14:51:19;25.20;24.70
13436;DHT22;6790;49.520;8.504;2023-05-27T14:53:46;25.40;24.30
13436;DHT22;6790;49.520;8.504;2023-05-27T14:56:12;25.40;23.10
13436;DHT22;6790;49.520;8.504;2023-05-27T14:58:38;25.50;22.60
13436;DHT22;6790;49.520;8.504;2023-05-27T15:01:04;25.50;24.90
13436;DHT22;6790;49.520;8.504;2023-05-27T15:03:30;25.50;22.70
13436;DHT22;6790;49.520;8.504;2023-05-27T15:05:56;25.30;22.80
13436;DHT22;6790;49.520;8.504;2023-05-27T15:08:26;25.10;23.00
13436;DHT22;6790;49.520;8.504;2023-05-27T15:10:52;25.10;23.90
13436;DHT22;6790;49.520;8.504;2023-05-27T15:13:18;25.10;24.20
13436;DHT22;6790;49.520;8.504;2023-05-27T15:15:45;25.10;25.00
13436;DHT22;6790;49.520;8.504;2023-05-27T15:18:10;25.10;24.80
13436;DHT22;6790;49.520;8.504;2023-05-27T15:20:37;25.20;23.70
13436;DHT22;6790;49.520;8.504;2023-05-27T15:23:03;25.20;25.80
13436;DHT22;6790;49.520;8.504;2023-05-27T15:25:29;25.00;23.20
13436;DHT22;6790;49.520;8.504;2023-05-27T15:27:55;25.10;23.40
13436;DHT22;6790;49.520;8.504;2023-05-27T15:30:21;25.40;24.30
13436;DHT22;6790;49.520;8.504;2023-05-27T15:32:47;25.70;23.70
13436;DHT22;6790;49.520;8.504;2023-05-27T15:35:12;25.70;23.40
13436;DHT22;6790;49.520;8.504;2023-05-27T15:37:38;25.40;24.00
13436;DHT22;6790;49.520;8.504;2023-05-27T15:40:05;25.20;23.00
13436;DHT22;6790;49.520;8.504;2023-05-27T15:42:31;25.10;24.40
13436;DHT22;6790;49.520;8.504;2023-05-27T15:44:57;25.20;23.60
13436;DHT22;6790;49.520;8.504;2023-05-27T15:47:23;25.20;23.60
13436;DHT22;6790;49.520;8.504;2023-05-27T15:49:49;24.90;22.70
13436;DHT22;6790;49.520;8.504;2023-05-27T15:52:14;24.90;24.00
13436;DHT22;6790;49.520;8.504;2023-05-27T15:54:41;24.80;23.20
13436;DHT22;6790;49.520;8.504;2023-05-27T15:57:07;24.90;24.20
13436;DHT22;6790;49.520;8.504;2023-05-27T15:59:38;24.90;24.30